Delta Pride — DSNG6 — position and weather

sailwx.info

Track history (hours):
 
Tides and Currents Weather Stations Pressure Air Temp Water Temp Dewpoint Dewpoint Depression Visibility Wind Speed Wind Dir Waves Ship Positions

Delta Pride

Last reported at 2014-Sep-08 10:30 UTC. Time now 2014-Oct-02 02:35 UTC.
Position N 38°24' W 124°37'.
Warning: this ship's position is 23 days out of date.

Length 186 m; draft 10.4 m.

Type: Cargo ship. MMSI: 441339000.

Date/timePositionNaut miles runAvg speedWind from/ knotsBaromVisibWave heightAir tempDewpointWater temp
2014-Sep-08 10:30N 38°24' W 124°37'1112.2
2014-Sep-08 09:33N 38°16' W 124°27'1412.5
2014-Sep-08 08:24N 38°05' W 124°14'1012.2
2014-Sep-08 07:33N 37°58' W 124°04'1212.1
2014-Sep-08 06:33N 37°50' W 123°53'1212.2
2014-Sep-08 05:33N 37°41' W 123°42'1211.9
2014-Sep-08 04:31N 37°35' W 123°29'1212.9
2014-Sep-08 03:33N 37°34' W 123°13'1211.9
2014-Sep-08 02:33N 37°37' W 122°58'1212.2
2014-Sep-08 01:33N 37°43' W 122°45'9 8.7
2014-Sep-08 00:33N 37°47' W 122°35'10 9.7
2014-Sep-07 23:33N 37°54' W 122°26'1110.8
2014-Sep-07 22:34N 38°03' W 122°20'11 9.4
2014-Sep-07 21:23N 38°03' W 122°06'7 8.1
2014-Sep-07 20:33N 38°03' W 121°57'4 4.0
2014-Sep-07 19:33N 38°02' W 121°52'0 0.0
2014-Sep-07 18:33N 38°02' W 121°52'0 0.0
2014-Sep-07 16:27N 38°02' W 121°52'0 0.0
2014-Sep-07 14:33N 38°02' W 121°52'0 0.0
2014-Sep-07 13:09N 38°02' W 121°52'0 0.0
2014-Sep-07 12:33N 38°02' W 121°52'0 0.0
2014-Sep-07 11:33N 38°02' W 121°52'0 0.0
2014-Sep-07 10:21N 38°02' W 121°52'0 0.0
2014-Sep-07 09:33N 38°02' W 121°52'0 0.0
2014-Sep-07 08:21N 38°02' W 121°52'0 0.0
2014-Sep-07 07:33N 38°02' W 121°52'0 0.0
2014-Sep-07 06:27N 38°02' W 121°52'0 0.0
2014-Sep-07 05:21N 38°02' W 121°52'0 0.0
2014-Sep-07 02:33N 38°02' W 121°52'0 0.0
2014-Sep-07 01:15N 38°02' W 121°52'0 0.0
2014-Sep-06 21:33N 38°02' W 121°52'0 0.0
2014-Sep-06 19:33N 38°02' W 121°52'0 0.0
2014-Sep-06 18:03N 38°02' W 121°52'0 0.0
2014-Sep-06 16:27N 38°02' W 121°52'0 0.0
2014-Sep-06 15:21N 38°02' W 121°52'0 0.0
2014-Sep-06 14:27N 38°02' W 121°52'0 0.0
2014-Sep-06 13:15N 38°02' W 121°52'0 0.0
2014-Sep-06 12:21N 38°02' W 121°52'0 0.0
2014-Sep-06 11:33N 38°02' W 121°52'0 0.0
2014-Sep-06 10:33N 38°02' W 121°52'0 0.0
2014-Sep-06 08:33N 38°02' W 121°52'0 0.0
2014-Sep-06 07:33N 38°02' W 121°52'0 0.0
2014-Sep-06 06:33N 38°02' W 121°52'0 0.0
2014-Sep-06 05:33N 38°02' W 121°52'0 0.0
2014-Sep-06 04:33N 38°02' W 121°52'0 0.0
2014-Sep-06 03:27N 38°02' W 121°52'0 0.0
2014-Sep-06 02:33N 38°02' W 121°52'0 0.0
2014-Sep-05 18:15N 38°02' W 121°52'0 0.0
2014-Sep-05 17:32N 38°02' W 121°52'2 1.9
2014-Sep-05 16:33N 38°02' W 121°50'2 0.1
2014-Sep-05 02:29N 38°02' W 121°52'0 0.0
2014-Sep-05 01:29N 38°02' W 121°52'0 0.0
2014-Sep-05 00:29N 38°02' W 121°52'0 0.0
2014-Sep-04 18:29N 38°02' W 121°52'0 0.0
2014-Sep-04 17:17N 38°02' W 121°52'0 0.0
2014-Sep-04 15:17N 38°02' W 121°52'0 0.0
2014-Sep-04 14:17N 38°02' W 121°52'0 0.0
2014-Sep-04 13:29N 38°02' W 121°52'0 0.0
2014-Sep-04 12:17N 38°02' W 121°52'0 0.0
2014-Sep-04 11:29N 38°02' W 121°52'0 0.0
2014-Sep-04 10:29N 38°02' W 121°52'0 0.0
2014-Sep-04 05:17N 38°02' W 121°52'0 0.0
2014-Sep-04 04:29N 38°02' W 121°52'0 0.0
2014-Sep-04 03:29N 38°02' W 121°52'0 0.0
2014-Sep-03 10:23N 38°02' W 121°52'0 0.0
2014-Sep-03 06:05N 38°02' W 121°52'0 0.0
2014-Sep-03 05:29N 38°02' W 121°52'0 0.0
2014-Sep-03 04:23N 38°02' W 121°52'13 1.7
2014-Sep-02 20:33N 38°02' W 122°08'9 9.4
2014-Sep-02 19:33N 38°03' W 122°20'1010.2
2014-Sep-02 18:33N 37°54' W 122°26'9 8.5
2014-Sep-02 17:33N 37°47' W 122°33'1010.2
2014-Sep-02 16:33N 37°42' W 122°44'1111.2
2014-Sep-02 15:33N 37°36' W 122°56'1110.8
2014-Sep-02 14:33N 37°32' W 123°09'1110.9
2014-Sep-02 13:32N 37°32' W 123°23'1111.4
2014-Sep-02 12:33N 37°35' W 123°36'1212.1
2014-Sep-02 11:33N 37°42' W 123°48'1111.2
2014-Sep-02 10:33N 37°49' W 123°59'1111.3
2014-Sep-02 09:33N 37°56' W 124°10'1111.5
2014-Sep-02 08:33N 38°03' W 124°21'1211.5
2014-Sep-02 07:31N 38°10' W 124°34'1111.3
2014-Sep-02 06:32N 38°17' W 124°46'1111.4
2014-Sep-02 05:32N 38°23' W 124°58'1111.2
2014-Sep-02 04:33N 38°28' W 125°10'2311.3
2014-Sep-02 02:32N 38°42' W 125°33'1110.9
2014-Sep-02 01:33N 38°49' W 125°43'1110.8
2014-Sep-02 00:33N 38°57' W 125°53'1110.8
2014-Sep-01 23:33N 39°04' W 126°03'  
Track history (hours):
 
Tides and Currents Weather Stations Pressure Air Temp Water Temp Dewpoint Dewpoint Depression Visibility Wind Speed Wind Dir Waves Ship Positions

Delta Pride

Last reported at 2014-Sep-08 10:30 UTC. Time now 2014-Oct-02 02:35 UTC.
Position N 38°24' W 124°37'.
Warning: this ship's position is 23 days out of date.

Length 186 m; draft 10.4 m.

Type: Cargo ship. MMSI: 441339000.

Date/timePositionNaut miles runAvg speedWind from/ knotsBaromVisibWave heightAir tempDewpointWater temp
2014-Sep-08 10:30N 38°24' W 124°37'1112.2
2014-Sep-08 09:33N 38°16' W 124°27'1412.5
2014-Sep-08 08:24N 38°05' W 124°14'1012.2
2014-Sep-08 07:33N 37°58' W 124°04'1212.1
2014-Sep-08 06:33N 37°50' W 123°53'1212.2
2014-Sep-08 05:33N 37°41' W 123°42'1211.9
2014-Sep-08 04:31N 37°35' W 123°29'1212.9
2014-Sep-08 03:33N 37°34' W 123°13'1211.9
2014-Sep-08 02:33N 37°37' W 122°58'1212.2
2014-Sep-08 01:33N 37°43' W 122°45'9 8.7
2014-Sep-08 00:33N 37°47' W 122°35'10 9.7
2014-Sep-07 23:33N 37°54' W 122°26'1110.8
2014-Sep-07 22:34N 38°03' W 122°20'11 9.4
2014-Sep-07 21:23N 38°03' W 122°06'7 8.1
2014-Sep-07 20:33N 38°03' W 121°57'4 4.0
2014-Sep-07 19:33N 38°02' W 121°52'0 0.0
2014-Sep-07 18:33N 38°02' W 121°52'0 0.0
2014-Sep-07 16:27N 38°02' W 121°52'0 0.0
2014-Sep-07 14:33N 38°02' W 121°52'0 0.0
2014-Sep-07 13:09N 38°02' W 121°52'0 0.0
2014-Sep-07 12:33N 38°02' W 121°52'0 0.0
2014-Sep-07 11:33N 38°02' W 121°52'0 0.0
2014-Sep-07 10:21N 38°02' W 121°52'0 0.0
2014-Sep-07 09:33N 38°02' W 121°52'0 0.0
2014-Sep-07 08:21N 38°02' W 121°52'0 0.0
2014-Sep-07 07:33N 38°02' W 121°52'0 0.0
2014-Sep-07 06:27N 38°02' W 121°52'0 0.0
2014-Sep-07 05:21N 38°02' W 121°52'0 0.0
2014-Sep-07 02:33N 38°02' W 121°52'0 0.0
2014-Sep-07 01:15N 38°02' W 121°52'0 0.0
2014-Sep-06 21:33N 38°02' W 121°52'0 0.0
2014-Sep-06 19:33N 38°02' W 121°52'0 0.0
2014-Sep-06 18:03N 38°02' W 121°52'0 0.0
2014-Sep-06 16:27N 38°02' W 121°52'0 0.0
2014-Sep-06 15:21N 38°02' W 121°52'0 0.0
2014-Sep-06 14:27N 38°02' W 121°52'0 0.0
2014-Sep-06 13:15N 38°02' W 121°52'0 0.0
2014-Sep-06 12:21N 38°02' W 121°52'0 0.0
2014-Sep-06 11:33N 38°02' W 121°52'0 0.0
2014-Sep-06 10:33N 38°02' W 121°52'0 0.0
2014-Sep-06 08:33N 38°02' W 121°52'0 0.0
2014-Sep-06 07:33N 38°02' W 121°52'0 0.0
2014-Sep-06 06:33N 38°02' W 121°52'0 0.0
2014-Sep-06 05:33N 38°02' W 121°52'0 0.0
2014-Sep-06 04:33N 38°02' W 121°52'0 0.0
2014-Sep-06 03:27N 38°02' W 121°52'0 0.0
2014-Sep-06 02:33N 38°02' W 121°52'0 0.0
2014-Sep-05 18:15N 38°02' W 121°52'0 0.0
2014-Sep-05 17:32N 38°02' W 121°52'2 1.9
2014-Sep-05 16:33N 38°02' W 121°50'2 0.1
2014-Sep-05 02:29N 38°02' W 121°52'0 0.0
2014-Sep-05 01:29N 38°02' W 121°52'0 0.0
2014-Sep-05 00:29N 38°02' W 121°52'0 0.0
2014-Sep-04 18:29N 38°02' W 121°52'0 0.0
2014-Sep-04 17:17N 38°02' W 121°52'0 0.0
2014-Sep-04 15:17N 38°02' W 121°52'0 0.0
2014-Sep-04 14:17N 38°02' W 121°52'0 0.0
2014-Sep-04 13:29N 38°02' W 121°52'0 0.0
2014-Sep-04 12:17N 38°02' W 121°52'0 0.0
2014-Sep-04 11:29N 38°02' W 121°52'0 0.0
2014-Sep-04 10:29N 38°02' W 121°52'0 0.0
2014-Sep-04 05:17N 38°02' W 121°52'0 0.0
2014-Sep-04 04:29N 38°02' W 121°52'0 0.0
2014-Sep-04 03:29N 38°02' W 121°52'0 0.0
2014-Sep-03 10:23N 38°02' W 121°52'0 0.0
2014-Sep-03 06:05N 38°02' W 121°52'0 0.0
2014-Sep-03 05:29N 38°02' W 121°52'0 0.0
2014-Sep-03 04:23N 38°02' W 121°52'13 1.7
2014-Sep-02 20:33N 38°02' W 122°08'9 9.4
2014-Sep-02 19:33N 38°03' W 122°20'1010.2
2014-Sep-02 18:33N 37°54' W 122°26'9 8.5
2014-Sep-02 17:33N 37°47' W 122°33'1010.2
2014-Sep-02 16:33N 37°42' W 122°44'1111.2
2014-Sep-02 15:33N 37°36' W 122°56'1110.8
2014-Sep-02 14:33N 37°32' W 123°09'1110.9
2014-Sep-02 13:32N 37°32' W 123°23'1111.4
2014-Sep-02 12:33N 37°35' W 123°36'1212.1
2014-Sep-02 11:33N 37°42' W 123°48'1111.2
2014-Sep-02 10:33N 37°49' W 123°59'1111.3
2014-Sep-02 09:33N 37°56' W 124°10'1111.5
2014-Sep-02 08:33N 38°03' W 124°21'1211.5
2014-Sep-02 07:31N 38°10' W 124°34'1111.3
2014-Sep-02 06:32N 38°17' W 124°46'1111.4
2014-Sep-02 05:32N 38°23' W 124°58'1111.2
2014-Sep-02 04:33N 38°28' W 125°10'2311.3
2014-Sep-02 02:32N 38°42' W 125°33'1110.9
2014-Sep-02 01:33N 38°49' W 125°43'1110.8
2014-Sep-02 00:33N 38°57' W 125°53'1110.8
2014-Sep-01 23:33N 39°04' W 126°03'  

Dump ship's entire track history